Time;durP1;ratioP1;P1;durP2;ratioP2;P2;SDS_P1;SDS_P2;PMS_P1;PMS_P2;Temp;Humidity;BMP_temperature;BMP_pressure;BME280_temperature;BME280_humidity;BME280_pressure;Samples;Min_cycle;Max_cycle;Signal;HPM_P1;HPM_P2
2022/02/25 00:00:23;;;;;;;5.80;1.70;;;;;;;5.81;56.43;101556.59;4949682;28;115066;-66
2022/02/25 00:02:50;;;;;;;5.05;1.60;;;;;;;5.79;56.19;101558.38;4947925;28;124593;-66
2022/02/25 00:05:18;;;;;;;5.00;1.60;;;;;;;5.80;56.23;101565.34;4949304;28;124013;-66
2022/02/25 00:07:45;;;;;;;5.82;1.67;;;;;;;5.77;56.50;101566.25;4948949;28;114026;-66
2022/02/25 00:10:12;;;;;;;6.80;1.65;;;;;;;5.76;56.46;101568.91;4948147;28;114362;-66
2022/02/25 00:12:40;;;;;;;4.15;1.77;;;;;;;5.76;56.18;101563.66;4917689;28;123139;-66
2022/02/25 00:15:07;;;;;;;3.80;1.60;;;;;;;5.74;56.42;101571.56;4947276;28;123814;-66
2022/02/25 00:17:35;;;;;;;4.00;1.55;;;;;;;5.75;56.20;101567.19;4933190;28;114103;-66
2022/02/25 00:20:03;;;;;;;4.18;1.92;;;;;;;5.73;56.50;101574.22;4947123;28;114125;-66
2022/02/25 00:22:30;;;;;;;6.13;1.80;;;;;;;5.73;56.47;101579.47;4948969;28;124393;-66
2022/02/25 00:24:57;;;;;;;6.90;2.20;;;;;;;5.74;56.50;101586.47;4950347;28;123887;-66
2022/02/25 00:27:25;;;;;;;6.43;2.50;;;;;;;5.74;56.64;101591.72;4948037;28;115372;-66
2022/02/25 00:29:54;;;;;;;4.45;2.00;;;;;;;5.75;56.71;101593.47;4932243;28;115007;-66
2022/02/25 00:32:22;;;;;;;7.38;1.80;;;;;;;5.76;56.57;101595.19;4949651;28;123349;-66
2022/02/25 00:34:50;;;;;;;6.43;1.80;;;;;;;5.77;56.67;101599.56;4949328;28;125385;-66
2022/02/25 00:37:17;;;;;;;4.75;1.80;;;;;;;5.78;56.54;101593.41;4933772;28;113259;-66
2022/02/25 00:39:44;;;;;;;4.70;1.83;;;;;;;5.80;56.67;101602.13;4933332;28;114254;-66
2022/02/25 00:42:13;;;;;;;4.95;2.10;;;;;;;5.81;56.23;101603.91;4949769;28;123914;-66
2022/02/25 00:44:40;;;;;;;4.82;1.77;;;;;;;5.81;56.63;101609.16;4931190;28;123980;-66
2022/02/25 00:47:07;;;;;;;6.95;1.80;;;;;;;5.82;56.61;101613.50;4949729;28;113677;-67
2022/02/25 00:49:35;;;;;;;5.72;2.00;;;;;;;5.82;56.45;101610.88;4946983;28;114331;-66
2022/02/25 00:52:03;;;;;;;3.88;1.83;;;;;;;5.83;56.54;101612.63;4947437;28;124245;-66
2022/02/25 00:54:30;;;;;;;5.63;1.58;;;;;;;5.85;56.78;101616.09;4933501;28;122768;-66
2022/02/25 00:56:57;;;;;;;5.32;1.77;;;;;;;5.86;56.55;101612.59;4933527;28;113744;-66
2022/02/25 00:59:25;;;;;;;4.10;1.60;;;;;;;5.87;56.63;101614.31;4930917;28;114648;-66
2022/02/25 01:01:53;;;;;;;7.95;1.70;;;;;;;5.89;56.56;101625.69;4948898;28;123589;-66
2022/02/25 01:04:20;;;;;;;5.60;1.83;;;;;;;5.91;56.62;101621.28;4933404;28;124285;-66
2022/02/25 01:06:49;;;;;;;6.50;1.70;;;;;;;5.94;56.40;101620.38;4949405;28;115172;-66
2022/02/25 01:09:16;;;;;;;6.22;1.70;;;;;;;5.96;56.50;101624.75;4950142;28;113151;-66
2022/02/25 01:11:43;;;;;;;3.28;1.63;;;;;;;6.00;56.73;101626.44;4948783;28;123181;-66
2022/02/25 01:14:11;;;;;;;3.97;1.63;;;;;;;6.04;56.55;101628.13;4949183;28;122988;-67
2022/02/25 01:16:38;;;;;;;5.30;1.30;;;;;;;6.09;56.49;101624.59;4948826;28;115301;-66
2022/02/25 01:19:05;;;;;;;5.45;1.30;;;;;;;6.11;56.71;101623.69;4949905;28;113926;-66
2022/02/25 01:21:32;;;;;;;4.40;1.77;;;;;;;6.15;56.74;101621.88;4948856;28;124473;-66
2022/02/25 01:24:00;;;;;;;4.55;1.65;;;;;;;6.17;56.84;101617.47;4950178;28;124407;-66
2022/02/25 01:26:28;;;;;;;8.40;1.67;;;;;;;6.20;56.47;101622.69;4948025;28;114397;-66
2022/02/25 01:28:55;;;;;;;4.03;1.38;;;;;;;6.22;56.34;101620.91;4933838;28;112774;-66
2022/02/25 01:31:23;;;;;;;6.00;1.55;;;;;;;6.23;56.29;101614.72;4948162;28;123317;-66
2022/02/25 01:33:53;;;;;;;8.25;2.05;;;;;;;6.23;56.56;101615.63;4950333;28;124184;-66
2022/02/25 01:36:20;;;;;;;6.65;1.40;;;;;;;6.24;56.35;101613.84;4947947;28;114302;-66
2022/02/25 01:38:47;;;;;;;4.80;1.50;;;;;;;6.26;56.29;101612.06;4969197;28;113986;-66
2022/02/25 01:41:14;;;;;;;6.18;1.40;;;;;;;6.27;56.29;101608.53;4970764;28;123035;-66
2022/02/25 01:43:43;;;;;;;4.78;1.40;;;;;;;6.27;56.17;101603.25;4972632;28;123897;-67
2022/02/25 01:46:10;;;;;;;4.45;1.55;;;;;;;6.28;56.16;101615.53;4972027;28;113204;-66
2022/02/25 01:48:37;;;;;;;3.33;1.25;;;;;;;6.28;56.25;101605.03;4971822;28;113322;-66
2022/02/25 01:51:05;;;;;;;5.57;1.73;;;;;;;6.29;56.27;101606.78;4970913;28;123388;-66
2022/02/25 01:53:32;;;;;;;6.28;1.77;;;;;;;6.27;56.49;101598.00;4971655;28;123360;-66
2022/02/25 01:55:59;;;;;;;6.75;1.50;;;;;;;6.27;56.15;101598.00;4939610;28;113683;-66
2022/02/25 01:58:28;;;;;;;5.15;1.75;;;;;;;6.28;55.97;101599.75;4971105;28;114437;-66
2022/02/25 02:00:59;;;;;;;5.35;1.60;;;;;;;6.26;56.03;101596.28;4966160;28;124100;-66
2022/02/25 02:03:27;;;;;;;3.55;1.40;;;;;;;6.27;56.27;101607.66;4952619;28;122979;-66
2022/02/25 02:05:55;;;;;;;4.80;1.48;;;;;;;6.26;56.02;101601.53;4952568;28;115068;-66
2022/02/25 02:08:22;;;;;;;5.95;1.27;;;;;;;6.27;56.24;101608.53;4955735;28;113995;-66
2022/02/25 02:10:53;;;;;;;4.13;1.50;;;;;;;6.29;56.14;101622.56;4968014;28;123917;-66
2022/02/25 02:13:20;;;;;;;4.25;1.45;;;;;;;6.30;56.31;101613.75;4938000;28;123715;-66
2022/02/25 02:15:47;;;;;;;4.75;1.50;;;;;;;6.30;56.38;101612.91;4971437;28;113413;-66
2022/02/25 02:18:15;;;;;;;4.97;1.38;;;;;;;6.30;56.14;101616.38;4961877;28;114257;-67
2022/02/25 02:20:42;;;;;;;5.50;1.58;;;;;;;6.30;55.98;101613.75;4977428;28;123505;-67
2022/02/25 02:23:09;;;;;;;5.82;1.63;;;;;;;6.31;56.12;101614.63;4971028;28;124951;-67
2022/02/25 02:25:37;;;;;;;5.18;1.60;;;;;;;6.31;56.11;101620.78;4972442;28;114296;-66
2022/02/25 02:28:21;;;;;;;3.88;1.40;;;;;;;6.32;56.03;101622.50;4970010;28;113844;-66
2022/02/25 02:30:49;;;;;;;4.82;1.48;;;;;;;6.32;56.00;101622.50;4969942;28;123956;-67
2022/02/25 02:33:16;;;;;;;9.77;1.90;;;;;;;6.32;56.06;101622.50;4970476;28;123356;-66
2022/02/25 02:35:43;;;;;;;7.50;1.52;;;;;;;6.31;55.85;101620.78;4971152;28;114541;-66
2022/02/25 02:38:12;;;;;;;6.13;1.45;;;;;;;6.33;55.77;101624.25;4972714;28;113863;-66
2022/02/25 02:40:39;;;;;;;6.80;1.42;;;;;;;6.32;55.98;101622.50;4951385;28;124425;-66
2022/02/25 02:43:10;;;;;;;6.05;1.63;;;;;;;6.31;55.80;101626.03;4970520;28;123086;-67
2022/02/25 02:45:37;;;;;;;3.95;1.38;;;;;;;6.31;55.81;101626.03;4971609;28;114036;-66
2022/02/25 02:48:05;;;;;;;3.95;1.40;;;;;;;6.30;55.81;101629.53;4955256;28;112896;-66
2022/02/25 02:50:32;;;;;;;4.60;1.40;;;;;;;6.30;55.63;101629.53;4969674;28;123245;-66
2022/02/25 02:52:59;;;;;;;5.40;1.70;;;;;;;6.30;55.71;101634.81;4970284;28;123009;-67
2022/02/25 02:55:27;;;;;;;3.95;1.27;;;;;;;6.29;55.52;101635.72;4967904;28;116015;-67
2022/02/25 02:57:54;;;;;;;6.15;1.70;;;;;;;6.28;55.46;101635.72;4971072;28;114033;-67
2022/02/25 03:00:22;;;;;;;7.68;1.70;;;;;;;6.27;55.84;101626.94;4968471;28;124459;-67
2022/02/25 03:02:49;;;;;;;4.97;1.30;;;;;;;6.25;55.85;101636.63;4954016;28;122907;-66
2022/02/25 03:05:18;;;;;;;3.90;1.20;;;;;;;6.24;55.51;101634.91;4970998;28;113309;-67
2022/02/25 03:07:46;;;;;;;6.63;1.40;;;;;;;6.24;55.43;101637.53;4971208;28;113232;-66
2022/02/25 03:10:14;;;;;;;5.47;1.58;;;;;;;6.24;55.64;101629.63;4967237;28;124832;-66
2022/02/25 03:12:41;;;;;;;5.45;1.73;;;;;;;6.22;55.80;101628.78;4970901;28;122749;-66
2022/02/25 03:15:14;;;;;;;5.10;1.48;;;;;;;6.21;55.46;101624.41;4971483;28;114656;-66
2022/02/25 03:17:44;;;;;;;3.90;1.30;;;;;;;6.19;56.01;101621.78;4953999;28;113358;-67
2022/02/25 03:20:13;;;;;;;4.20;1.30;;;;;;;6.19;55.49;101624.44;4950592;28;124073;-67
2022/02/25 03:22:40;;;;;;;6.28;1.48;;;;;;;6.19;55.63;101623.56;4969608;28;123994;-67
2022/02/25 03:25:08;;;;;;;8.68;1.55;;;;;;;6.19;55.85;101618.31;4970897;28;114194;-66
2022/02/25 03:27:35;;;;;;;4.30;1.10;;;;;;;6.19;55.43;101618.31;4970879;28;112951;-67
2022/02/25 03:30:03;;;;;;;6.00;1.40;;;;;;;6.19;55.63;101615.69;4970481;28;124293;-67
2022/02/25 03:32:30;;;;;;;8.02;1.50;;;;;;;6.18;55.78;101624.47;4954041;28;122986;-67
2022/02/25 03:34:57;;;;;;;4.28;1.20;;;;;;;6.17;55.58;101622.72;4967652;28;114781;-67
2022/02/25 03:37:28;;;;;;;3.40;1.35;;;;;;;6.17;55.96;101612.19;4970737;28;113080;-67
2022/02/25 03:39:56;;;;;;;7.47;1.75;;;;;;;6.19;55.72;101618.31;4953314;28;122753;-67
2022/02/25 03:42:24;;;;;;;4.03;1.30;;;;;;;6.18;55.46;101619.22;4968934;28;123843;-67
2022/02/25 03:44:52;;;;;;;9.73;1.35;;;;;;;6.18;55.84;101620.06;4969665;28;115497;-67
2022/02/25 03:47:19;;;;;;;6.25;1.48;;;;;;;6.20;55.77;101622.69;4970558;28;114073;-67
2022/02/25 03:49:47;;;;;;;5.90;1.60;;;;;;;6.19;55.84;101620.94;4954089;28;98535;-67
2022/02/25 03:52:15;;;;;;;9.35;1.60;;;;;;;6.19;55.60;101631.44;4969970;28;123477;-67
2022/02/25 03:54:42;;;;;;;6.72;1.20;;;;;;;6.18;56.00;101629.72;4953936;28;113189;-67
2022/02/25 03:57:09;;;;;;;6.15;1.52;;;;;;;6.19;55.78;101631.44;4969884;28;113487;-67
2022/02/25 03:59:37;;;;;;;5.82;1.30;;;;;;;6.16;55.50;101634.13;4968545;28;124825;-67
2022/02/25 04:02:05;;;;;;;3.92;1.20;;;;;;;6.16;55.62;101632.38;4968160;28;123855;-67
2022/02/25 04:04:33;;;;;;;3.13;1.00;;;;;;;6.17;55.85;101643.75;4968684;28;114687;-67
2022/02/25 04:07:01;;;;;;;6.35;1.45;;;;;;;6.16;55.93;101632.38;4969999;28;112827;-67
2022/02/25 04:09:28;;;;;;;7.50;1.42;;;;;;;6.17;55.88;101622.72;4969188;28;122746;-67
2022/02/25 04:11:55;;;;;;;3.65;0.88;;;;;;;6.15;55.42;101633.25;4968182;28;124258;-67
2022/02/25 04:14:23;;;;;;;7.13;1.45;;;;;;;6.15;55.61;101635.03;4967215;28;114424;-67
2022/02/25 04:16:51;;;;;;;5.85;1.20;;;;;;;6.15;55.87;101640.28;4968375;28;113956;-67
2022/02/25 04:19:19;;;;;;;6.40;1.27;;;;;;;6.16;55.56;101636.75;4967893;28;123678;-67
2022/02/25 04:21:47;;;;;;;9.15;1.63;;;;;;;6.16;55.63;101634.13;4968710;28;123138;-67
2022/02/25 04:24:14;;;;;;;7.47;1.48;;;;;;;6.15;55.85;101635.88;4969665;28;113276;-67
2022/02/25 04:26:42;;;;;;;4.75;1.33;;;;;;;6.15;55.74;101640.28;4951348;28;114660;-67
2022/02/25 04:29:10;;;;;;;9.25;1.40;;;;;;;6.15;55.61;101635.03;4966478;28;123744;-67
2022/02/25 04:31:38;;;;;;;4.18;1.20;;;;;;;6.13;55.61;101632.41;4950826;28;124157;-67
2022/02/25 04:34:05;;;;;;;4.47;1.02;;;;;;;6.15;55.79;101635.03;4952628;28;114022;-67
2022/02/25 04:36:35;;;;;;;3.42;1.10;;;;;;;6.15;55.69;101624.50;4969741;28;113980;-67
2022/02/25 04:39:05;;;;;;;5.15;1.10;;;;;;;6.15;55.70;101629.75;4952593;28;123629;-67
2022/02/25 04:41:35;;;;;;;8.73;1.30;;;;;;;6.16;55.75;101631.47;4970103;28;124038;-67
2022/02/25 04:44:05;;;;;;;7.28;1.15;;;;;;;6.16;55.70;101620.97;4969528;28;113279;-67
2022/02/25 04:46:38;;;;;;;4.85;1.30;;;;;;;6.16;55.41;101628.84;4970033;28;113089;-67
2022/02/25 04:49:06;;;;;;;5.90;1.13;;;;;;;6.16;55.70;101623.59;4967631;28;124239;-67
2022/02/25 04:51:34;;;;;;;6.75;1.10;;;;;;;6.17;55.71;101627.97;4969054;28;124892;-67
2022/02/25 04:54:01;;;;;;;6.53;1.10;;;;;;;6.18;55.74;101624.47;4969313;28;113099;-67
2022/02/25 04:56:28;;;;;;;10.68;1.75;;;;;;;6.19;55.64;101631.44;4968028;28;114562;-67
2022/02/25 04:58:56;;;;;;;8.18;1.92;;;;;;;6.19;55.78;101641.97;4967211;28;124452;-67
2022/02/25 05:01:23;;;;;;;7.28;1.35;;;;;;;6.20;55.86;101649.84;4952489;28;122611;-67
2022/02/25 05:03:53;;;;;;;5.93;1.60;;;;;;;6.20;55.82;101638.47;4969170;28;114456;-67
2022/02/25 05:06:20;;;;;;;5.18;1.17;;;;;;;6.21;55.65;101637.56;4966802;28;113849;-67
2022/02/25 05:08:47;;;;;;;6.53;1.52;;;;;;;6.22;55.79;101641.94;4968724;28;124473;-67
2022/02/25 05:11:17;;;;;;;7.72;1.40;;;;;;;6.22;55.69;101652.47;4968661;28;122977;-67
2022/02/25 05:13:44;;;;;;;6.45;1.23;;;;;;;6.24;55.59;101645.41;4972151;28;113691;-67
2022/02/25 05:21:33;;;;;;;5.88;1.15;;;;;;;6.28;55.67;101656.78;4972223;28;123953;-67
2022/02/25 05:24:01;;;;;;;7.63;1.42;;;;;;;6.27;55.78;101650.63;4973497;28;115379;-67
2022/02/25 05:26:31;;;;;;;6.57;1.33;;;;;;;6.27;55.74;101655.88;4972957;28;113997;-67
2022/02/25 05:28:58;;;;;;;6.93;1.23;;;;;;;6.27;55.48;101650.63;4953398;28;125415;-67
2022/02/25 05:31:25;;;;;;;4.95;1.30;;;;;;;6.28;55.63;101646.25;4968601;28;124563;-67
2022/02/25 05:33:53;;;;;;;5.78;1.17;;;;;;;6.29;55.53;101651.50;4972788;28;113321;-67
2022/02/25 05:36:20;;;;;;;6.32;1.10;;;;;;;6.30;55.81;101644.47;4972588;28;113016;-67
2022/02/25 05:38:49;;;;;;;8.23;1.40;;;;;;;6.31;55.66;101647.06;4971596;28;123754;-67
2022/02/25 05:41:17;;;;;;;9.85;1.42;;;;;;;6.32;55.62;101648.81;4969984;28;124097;-67
2022/02/25 05:43:45;;;;;;;5.72;1.25;;;;;;;6.31;55.49;101652.34;4971760;28;113088;-67
2022/02/25 05:46:14;;;;;;;8.10;1.20;;;;;;;6.32;55.56;101659.31;4954299;28;113748;-67
2022/02/25 05:48:41;;;;;;;4.65;1.25;;;;;;;6.32;55.59;101651.44;4971229;28;123490;-67
2022/02/25 05:51:08;;;;;;;5.03;1.13;;;;;;;6.32;55.42;101654.06;4954318;28;124593;-66
2022/02/25 05:53:35;;;;;;;4.20;1.02;;;;;;;6.33;55.61;101661.06;4972049;28;113274;-67
2022/02/25 05:56:03;;;;;;;5.85;1.30;;;;;;;6.32;55.34;101648.81;4969316;28;114090;-67
2022/02/25 05:58:30;;;;;;;9.02;1.58;;;;;;;6.33;55.41;101650.56;4969151;28;124042;-67
2022/02/25 06:00:57;;;;;;;7.65;1.30;;;;;;;6.34;55.65;101652.28;4954301;28;122912;-67
2022/02/25 06:03:25;;;;;;;8.68;1.50;;;;;;;6.35;56.01;101654.03;4971773;28;113588;-67
2022/02/25 06:05:53;;;;;;;4.75;1.25;;;;;;;6.36;55.84;101661.00;4971003;28;114189;-67
2022/02/25 06:08:20;;;;;;;5.88;1.13;;;;;;;6.38;55.78;101659.22;4972047;28;123126;-67
2022/02/25 06:10:48;;;;;;;10.77;1.17;;;;;;;6.39;55.54;101654.84;4954893;28;123001;-67
2022/02/25 06:13:15;;;;;;;6.65;1.13;;;;;;;6.41;55.72;101661.81;4970196;28;115557;-67
2022/02/25 06:15:45;;;;;;;13.23;1.42;;;;;;;6.42;55.52;101663.56;4972041;28;114746;-67
2022/02/25 06:18:13;;;;;;;11.25;1.42;;;;;;;6.45;55.52;101669.69;4971795;28;123890;-67
2022/02/25 06:20:41;;;;;;;3.88;1.20;;;;;;;6.48;55.59;101669.63;4969561;28;124217;-67
2022/02/25 06:23:09;;;;;;;10.60;1.30;;;;;;;6.49;55.82;101666.13;4953431;28;114219;-67
2022/02/25 06:25:36;;;;;;;6.45;1.33;;;;;;;6.52;55.66;101676.59;4972540;28;113740;-67
2022/02/25 06:28:05;;;;;;;8.63;1.40;;;;;;;6.55;55.82;101676.53;4952076;28;123817;-67
2022/02/25 06:30:33;;;;;;;5.18;1.10;;;;;;;6.57;55.69;101690.53;4970921;28;124530;-66
2022/02/25 06:33:03;;;;;;;10.40;1.60;;;;;;;6.59;55.65;101683.50;4970993;28;114935;-67
2022/02/25 06:35:33;;;;;;;7.40;1.48;;;;;;;6.62;55.95;101683.47;4970812;28;114588;-67
2022/02/25 06:38:03;;;;;;;9.05;1.60;;;;;;;6.63;55.88;101690.47;4968643;28;124746;-67
2022/02/25 06:40:31;;;;;;;7.95;1.40;;;;;;;6.66;55.95;101695.66;4969125;28;124035;-67
2022/02/25 06:42:58;;;;;;;6.60;1.45;;;;;;;6.68;55.75;101699.16;4970753;28;113165;-67
2022/02/25 06:45:26;;;;;;;7.93;1.45;;;;;;;6.70;55.98;101696.50;4971036;28;113377;-67
2022/02/25 06:47:53;;;;;;;8.88;1.75;;;;;;;6.71;55.77;101693.84;4971159;28;123001;-67
2022/02/25 06:50:22;;;;;;;6.40;1.27;;;;;;;6.73;55.97;101699.97;4970381;28;123595;-67
2022/02/25 06:52:49;;;;;;;11.00;1.42;;;;;;;6.74;55.92;101699.06;4969940;28;115542;-67
2022/02/25 06:55:17;;;;;;;7.05;1.17;;;;;;;6.74;56.01;101717.50;4971919;28;115070;-67
2022/02/25 06:58:04;;;;;;;8.90;1.70;;;;;;;6.74;55.99;101709.59;4970600;28;123499;-67
2022/02/25 07:00:32;;;;;;;8.63;1.40;;;;;;;6.75;56.00;101716.59;4969090;28;124270;-67
2022/02/25 07:03:00;;;;;;;5.47;1.20;;;;;;;6.74;56.26;101717.50;4968815;28;115652;-67
2022/02/25 07:05:28;;;;;;;6.00;1.40;;;;;;;6.75;56.13;101727.13;4971275;28;115629;-67
2022/02/25 07:07:56;;;;;;;8.23;1.20;;;;;;;6.75;56.30;101716.59;4971303;28;123076;-67
2022/02/25 07:10:30;;;;;;;7.50;1.17;;;;;;;6.78;56.55;101726.19;4970926;28;123089;-67
2022/02/25 07:12:58;;;;;;;5.53;1.52;;;;;;;6.78;56.54;101716.56;4971387;28;114761;-67
2022/02/25 07:15:25;;;;;;;7.60;1.52;;;;;;;6.79;56.42;101722.69;4971579;28;113067;-67
2022/02/25 07:17:55;;;;;;;10.07;1.60;;;;;;;6.81;56.27;101726.16;4953274;28;124355;-67
2022/02/25 07:20:23;;;;;;;5.00;1.30;;;;;;;6.81;56.37;101732.28;4968701;28;123887;-67
2022/02/25 07:22:51;;;;;;;7.68;1.67;;;;;;;6.83;56.67;101740.16;4955566;28;113285;-67
2022/02/25 07:25:19;;;;;;;9.20;1.77;;;;;;;6.85;56.59;101748.06;4971703;28;112922;-67
2022/02/25 07:27:46;;;;;;;6.10;1.50;;;;;;;6.86;56.44;101745.41;4970430;28;123843;-67
2022/02/25 07:30:15;;;;;;;7.72;1.42;;;;;;;6.88;56.68;101737.50;4954260;28;122715;-67
2022/02/25 07:32:43;;;;;;;8.75;1.40;;;;;;;6.88;56.49;101742.75;4971034;28;114221;-67
2022/02/25 07:35:12;;;;;;;11.40;1.90;;;;;;;6.90;56.98;101746.22;4971703;28;113023;-66
2022/02/25 07:37:41;;;;;;;9.98;1.80;;;;;;;6.92;56.97;101750.56;4968812;28;124089;-67
2022/02/25 07:40:10;;;;;;;6.85;1.55;;;;;;;6.96;56.84;101751.41;4954031;28;124621;-67
2022/02/25 07:42:38;;;;;;;6.50;1.45;;;;;;;6.98;56.68;101755.72;4970527;28;114682;-66
2022/02/25 07:45:06;;;;;;;8.82;1.75;;;;;;;7.01;56.88;101755.69;4971876;28;112719;-67
2022/02/25 07:47:34;;;;;;;9.68;1.90;;;;;;;7.04;56.68;101754.78;4968270;28;124020;-67
2022/02/25 07:50:01;;;;;;;7.13;1.67;;;;;;;7.07;56.80;101765.25;4951027;28;123874;-67
2022/02/25 07:52:30;;;;;;;11.38;1.73;;;;;;;7.09;56.92;101768.75;4971106;28;115160;-69
2022/02/25 07:54:58;;;;;;;10.18;1.50;;;;;;;7.12;56.74;101773.97;4969675;28;115520;-68
2022/02/25 07:57:26;;;;;;;9.23;1.88;;;;;;;7.16;56.90;101775.66;4969175;28;124043;-67
2022/02/25 08:00:15;;;;;;;11.85;1.73;;;;;;;7.19;56.94;101780.00;4968276;28;124142;-67
2022/02/25 08:02:46;;;;;;;8.38;1.58;;;;;;;7.22;56.71;101780.81;4969055;28;114244;-67
2022/02/25 08:05:14;;;;;;;6.65;1.70;;;;;;;7.26;56.90;101796.59;4968169;28;114304;-66
2022/02/25 08:07:42;;;;;;;9.18;2.00;;;;;;;7.29;56.86;101796.53;4968279;28;124012;-66
2022/02/25 08:10:10;;;;;;;7.50;1.63;;;;;;;7.34;56.93;101811.38;4969703;28;124244;-67
2022/02/25 08:12:42;;;;;;;13.25;2.05;;;;;;;7.41;56.82;101814.78;4954569;28;114114;-67
2022/02/25 08:15:11;;;;;;;10.50;1.88;;;;;;;7.46;56.84;101820.88;4970715;28;113312;-66
2022/02/25 08:17:38;;;;;;;9.65;1.95;;;;;;;7.53;57.09;101819.84;4969585;28;123787;-67
2022/02/25 08:20:07;;;;;;;7.45;1.95;;;;;;;7.62;57.36;101820.59;4968327;28;123944;-67
2022/02/25 08:22:34;;;;;;;11.85;2.35;;;;;;;7.69;57.12;101827.53;4968519;28;114317;-66
2022/02/25 08:25:03;;;;;;;9.60;2.00;;;;;;;7.74;57.08;101823.00;4969101;28;115223;-67
2022/02/25 08:27:34;;;;;;;10.50;1.70;;;;;;;7.81;57.03;101832.56;4970163;28;124299;-67
2022/02/25 08:30:04;;;;;;;8.30;1.55;;;;;;;7.86;56.87;101825.44;4952901;28;123785;-66
2022/02/25 08:32:34;;;;;;;14.02;2.17;;;;;;;7.92;57.23;101835.88;4970172;28;113232;-66
2022/02/25 08:35:02;;;;;;;12.70;1.80;;;;;;;7.99;57.26;101837.50;4970960;28;113577;-67
2022/02/25 08:37:29;;;;;;;11.38;2.03;;;;;;;8.06;57.05;101837.41;4953896;28;123262;-67
2022/02/25 08:39:58;;;;;;;8.10;2.25;;;;;;;8.13;57.31;101839.03;4966548;28;124123;-67
2022/02/25 08:42:25;;;;;;;9.90;2.33;;;;;;;8.21;57.35;101836.25;4969360;28;114080;-67
2022/02/25 08:44:53;;;;;;;11.25;2.08;;;;;;;8.28;57.07;101854.56;4970119;28;114147;-67
2022/02/25 08:47:22;;;;;;;9.93;1.77;;;;;;;8.36;57.36;101855.31;4970966;28;124432;-67
2022/02/25 08:49:49;;;;;;;12.15;2.05;;;;;;;8.47;57.27;101854.25;4975974;28;123086;-67
2022/02/25 08:52:17;;;;;;;7.10;2.10;;;;;;;8.55;57.10;101854.94;4976480;28;113457;-66
2022/02/25 08:54:44;;;;;;;7.70;1.75;;;;;;;8.65;57.32;101864.44;4975294;28;113867;-67
2022/02/25 08:57:11;;;;;;;11.63;2.03;;;;;;;8.73;57.05;101867.78;4977489;28;124341;-67
2022/02/25 08:59:42;;;;;;;11.93;1.98;;;;;;;8.81;56.99;101869.41;4976379;28;123812;-67
2022/02/25 09:02:10;;;;;;;14.25;2.83;;;;;;;8.89;57.42;101872.72;4975169;28;115765;-66
2022/02/25 09:04:39;;;;;;;12.73;2.13;;;;;;;8.98;56.98;101876.97;4975108;28;114601;-66
2022/02/25 09:07:11;;;;;;;10.85;1.77;;;;;;;9.07;57.13;101882.03;4975599;28;123722;-66
2022/02/25 09:09:40;;;;;;;10.15;1.90;;;;;;;9.20;57.01;101880.00;4975308;28;122650;-66
2022/02/25 09:12:10;;;;;;;9.63;1.60;;;;;;;9.31;57.28;101885.91;4976055;28;114079;-66
2022/02/25 09:14:37;;;;;;;12.70;1.80;;;;;;;9.45;57.42;101883.81;4976778;28;113307;-66
2022/02/25 09:17:05;;;;;;;11.10;2.08;;;;;;;9.61;57.28;101883.47;4976251;28;123081;-66
2022/02/25 09:19:32;;;;;;;10.77;2.33;;;;;;;9.75;57.07;101900.72;4974426;28;124434;-66
2022/02/25 09:21:59;;;;;;;6.50;1.90;;;;;;;9.88;57.15;101893.34;4975254;28;114350;-66
2022/02/25 09:24:26;;;;;;;12.70;2.00;;;;;;;9.98;56.78;101887.81;4959939;28;112667;-66
2022/02/25 09:26:53;;;;;;;9.50;1.77;;;;;;;10.06;56.70;101896.44;4959079;28;123070;-66
2022/02/25 09:29:21;;;;;;;12.77;1.85;;;;;;;10.13;56.50;101898.00;4975374;28;122727;-67
2022/02/25 09:31:48;;;;;;;10.05;2.03;;;;;;;10.21;56.19;101903.97;4975346;28;115567;-65
2022/02/25 09:34:16;;;;;;;12.50;1.52;;;;;;;10.27;56.11;101910.88;4977707;28;114682;-65
2022/02/25 09:36:44;;;;;;;13.85;1.88;;;;;;;10.31;55.95;101904.63;4973213;28;123952;-66
2022/02/25 09:39:17;;;;;;;6.03;1.50;;;;;;;10.35;55.62;101905.41;4975541;28;123488;-65
2022/02/25 09:41:45;;;;;;;11.05;1.70;;;;;;;10.38;55.55;101918.56;4959166;28;113099;-66
2022/02/25 09:44:14;;;;;;;12.07;1.63;;;;;;;10.44;55.43;101919.28;4976182;28;113195;-65
2022/02/25 09:46:46;;;;;;;10.38;1.40;;;;;;;10.52;55.82;101921.72;4974998;28;123856;-65
2022/02/25 09:49:13;;;;;;;10.32;1.77;;;;;;;10.63;55.83;101919.63;4959740;28;123270;-65
2022/02/25 09:51:42;;;;;;;11.68;1.80;;;;;;;10.76;55.79;101914.00;4973157;28;114253;-66
2022/02/25 09:54:09;;;;;;;13.95;1.88;;;;;;;10.85;55.36;101922.56;4976114;28;113936;-65
2022/02/25 09:56:36;;;;;;;8.45;1.33;;;;;;;10.90;55.04;101917.09;4975345;28;124086;-66
2022/02/25 09:59:03;;;;;;;5.97;1.30;;;;;;;10.94;55.01;101929.34;4972242;28;123738;-65
2022/02/25 10:01:35;;;;;;;9.20;1.50;;;;;;;10.98;54.72;101936.31;4970544;28;114480;-66
2022/02/25 10:04:14;;;;;;;7.38;1.48;;;;;;;10.98;54.27;101962.84;4973786;28;114095;-66
2022/02/25 10:06:42;;;;;;;6.55;1.60;;;;;;;10.97;54.50;101955.78;4953548;28;124486;-65
2022/02/25 10:09:34;;;;;;;9.05;1.60;;;;;;;10.94;54.46;101966.44;4970867;28;124791;-65
2022/02/25 10:12:06;;;;;;;11.43;1.77;;;;;;;10.95;54.11;101973.50;4969299;28;115042;-65
2022/02/25 10:14:37;;;;;;;11.20;1.73;;;;;;;10.94;54.16;101987.66;4974313;28;113907;-65
2022/02/25 10:17:05;;;;;;;14.15;2.63;;;;;;;10.96;54.02;101980.53;4970297;28;124730;-65
2022/02/25 10:19:32;;;;;;;7.53;1.70;;;;;;;11.00;53.99;101984.84;4970352;28;124027;-66
2022/02/25 10:22:32;;;;;;;10.65;2.10;;;;;;;11.04;54.39;101983.84;4953676;28;115093;-65
2022/02/25 10:25:02;;;;;;;12.18;1.60;;;;;;;11.13;54.47;101971.22;4953471;28;115168;-65
2022/02/25 10:27:30;;;;;;;10.82;2.00;;;;;;;11.21;54.19;101982.50;4971965;28;123184;-65
2022/02/25 10:30:00;;;;;;;6.53;1.50;;;;;;;11.28;54.15;101987.56;4969816;28;123789;-65
2022/02/25 10:32:34;;;;;;;10.18;1.42;;;;;;;11.33;54.05;101995.38;4971703;28;113205;-65
2022/02/25 10:35:21;;;;;;;13.30;2.13;;;;;;;11.35;53.69;101995.34;4971803;28;113220;-65
2022/02/25 10:38:12;;;;;;;10.85;1.75;;;;;;;11.34;53.55;102002.44;4971215;28;124686;-65
2022/02/25 10:40:42;;;;;;;6.72;1.70;;;;;;;11.36;53.43;102000.63;4969866;28;124810;-65
2022/02/25 10:43:11;;;;;;;8.55;1.60;;;;;;;11.42;53.55;102005.72;4971860;28;113219;-65
2022/02/25 10:45:40;;;;;;;7.85;1.45;;;;;;;11.48;53.55;102010.84;4971907;28;114540;-65
2022/02/25 10:48:12;;;;;;;11.13;1.67;;;;;;;11.52;53.35;102016.06;4954699;28;123122;-65
2022/02/25 10:51:00;;;;;;;5.70;1.50;;;;;;;11.56;53.16;102020.34;4951899;28;123946;-66
2022/02/25 10:53:36;;;;;;;5.00;1.20;;;;;;;11.60;52.94;102035.25;4972286;28;115147;-65
2022/02/25 10:56:07;;;;;;;3.38;1.15;;;;;;;11.60;53.13;102030.84;4955236;28;112814;-65
2022/02/25 10:58:49;;;;;;;7.93;1.35;;;;;;;11.61;53.08;102037.00;4954909;28;123423;-65
2022/02/25 11:01:21;;;;;;;6.93;1.38;;;;;;;11.62;53.26;102044.94;4969165;28;124365;-65
2022/02/25 11:04:07;;;;;;;11.82;1.60;;;;;;;11.64;53.06;102050.16;4971329;28;114546;-65
2022/02/25 11:06:34;;;;;;;7.50;1.20;;;;;;;11.63;52.85;102045.78;4969696;28;113776;-66
2022/02/25 11:09:04;;;;;;;6.93;1.27;;;;;;;11.59;52.77;102044.16;4970544;28;124624;-65
2022/02/25 11:11:33;;;;;;;5.53;1.23;;;;;;;11.56;53.27;102045.09;4969087;28;122987;-66
2022/02/25 11:14:06;;;;;;;12.40;1.75;;;;;;;11.59;53.54;102054.78;4954560;28;114211;-65
2022/02/25 11:16:36;;;;;;;9.00;1.50;;;;;;;11.65;53.74;102054.56;4972571;28;114783;-65
2022/02/25 11:19:24;;;;;;;7.55;1.20;;;;;;;11.68;53.44;102065.13;4971361;28;122928;-65
2022/02/25 11:21:53;;;;;;;9.18;1.25;;;;;;;11.68;52.92;102065.13;4969726;28;124072;-65
2022/02/25 11:24:21;;;;;;;8.82;1.00;;;;;;;11.63;52.58;102069.69;4969800;28;114000;-65
2022/02/25 11:27:00;;;;;;;6.75;1.20;;;;;;;11.62;52.72;102081.19;4953981;28;114234;-65
2022/02/25 11:29:31;;;;;;;4.80;0.82;;;;;;;11.60;52.72;102075.06;4970653;28;122980;-64
2022/02/25 11:32:01;;;;;;;11.60;1.48;;;;;;;11.60;52.90;102083.03;4952299;28;124013;-65
2022/02/25 11:34:29;;;;;;;9.88;1.60;;;;;;;11.60;52.79;102083.03;4970913;28;114127;-65